19.4°F
Current conditions from King Hill
Updated every 5 minutes
 
  Friday December 15, 2017

Observations for Westford

Westford

44° 37' 39"N, 73° 02' 29"W, Elevation 850 ft.
Eastern Time

Hourly observations for the last 72 hours

Date Time Temperature (°F) Humi-
dity

(%)
Wind
(mph)
Pressure Rain (in)
Air Dew 6 Hour 1 Hr 3 Hr 6 Hr Day
Alt
(in)
Sea
Level

(mb)
Max Min
15 14:00 20.2 9.6 63 SSW 5 G 11 29.91 1013.0 0.00
15 13:00 22.0 10.2 22.4 -1.3 60 SSW 4 G 11 29.93 1013.7 0.00
15 12:00 18.9 9.8 67 SSW 6 G 10 29.96 1014.6 0.00
15 11:00 15.9 8.8 73 SSW 3 G 12 30.00 1015.8 0.00
15 10:00 13.2 7.1 76 SSW 4 G 12 30.02 1016.5 0.00
15 09:00 8.6 4.8 84 S 3 G 10 30.02 1016.6 0.00
15 08:00 0.1 -2.8 87 Calm 30.02 1016.5 0.00
15 07:00 -1.3 -4.2 6.5 -2.5 87 Calm 30.01 1016.2 0.00
15 06:00 0.6 -2.6 86 Calm 30.00 1015.8 0.00
15 05:00 0.4 -2.6 87 Calm 30.00 1015.8 0.00
15 04:00 0.2 -2.7 87 Calm 30.00 1016.1 0.00
15 03:00 -1.6 -4.8 86 Calm 30.01 1016.3 0.00
15 02:00 2.0 -2.2 82 Calm 29.99 1015.7 0.00
15 01:00 6.5 1.1 7.1 3.7 78 W 0 G 8 29.98 1015.3 0.00
15 00:00 6.2 0.8 78 W 1 G 9 29.98 1015.1 0.00
14 23:00 3.8 -1.8 77 W 0 G 5 29.97 1014.8 0.00
14 22:00 5.8 -1.0 73 W 1 G 6 29.96 1014.5 0.00
14 21:00 5.9 -0.9 73 WSW 1 G 8 29.93 1013.7 0.00
14 20:00 5.9 -1.2 72 W 0 G 7 29.91 1013.0 0.00
14 19:00 6.6 -1.7 11.9 4.4 68 W 2 G 15 29.89 1012.2 0.00
14 18:00 6.2 -2.1 68 W 2 G 7 29.86 1011.3 0.00
14 17:00 5.9 -1.8 70 Calm 29.83 1010.2 0.00
14 16:00 7.0 -1.0 69 Calm 29.80 1009.0 0.00
14 15:00 10.3 0.5 64 Calm 29.77 1008.2 0.00
14 14:00 10.8 1.0 64 WNW 0 G 2 29.74 1007.1 0.00
14 13:00 8.9 0.2 9.3 -1.8 67 Calm 29.72 1006.5 0.00
14 12:00 7.8 0.9 73 Calm 29.71 1006.0 0.00
14 11:00 5.8 0.1 77 Calm 29.70 1005.8 0.00
14 10:00 3.3 -1.2 81 Calm 29.69 1005.4 0.00
14 09:00 -0.9 -4.1 86 Calm 29.67 1004.7 0.00
14 08:00 -0.6 -4.0 85 Calm 29.64 1003.7 0.00
14 07:00 1.3 -2.2 7.7 1.2 85 Calm 29.61 1002.9 0.00
14 06:00 2.2 -1.5 84 Calm 29.58 1001.8 0.00
14 05:00 6.3 1.5 80 Calm 29.55 1000.5 0.00
14 04:00 7.3 1.9 78 Calm 29.54 1000.2 0.00
14 03:00 5.8 1.2 81 Calm 29.53 1000.1 0.00
14 02:00 6.3 0.6 77 W 2 G 9 29.53 1000.2 0.00
14 01:00 6.1 0.7 9.2 4.5 78 W 7 G 11 29.52 999.7 0.00
14 00:00 6.1 -0.4 74 W 6 G 12 29.51 999.3 0.00
13 23:00 6.5 -0.3 73 W 3 G 12 29.48 998.4 0.00
13 22:00 7.8 1.2 74 WNW 11 G 21 29.48 998.2 0.00
13 21:00 8.7 3.0 77 W 12 G 21 29.47 998.0 0.00
13 20:00 9.1 3.6 78 W 10 G 19 29.47 997.8 0.00
13 19:00 9.2 3.7 10.9 9.0 78 W 9 G 20 29.45 997.3 0.00
13 18:00 9.4 4.2 79 W 2 G 16 29.43 996.8 0.00
13 17:00 9.4 3.9 78 WNW 4 G 14 29.41 996.0 0.00
13 16:00 9.3 3.8 78 W 6 G 18 29.39 995.3 0.00
13 15:00 10.1 4.3 77 W 7 G 19 29.36 994.3 0.00
13 14:00 10.7 5.5 79 W 5 G 15 29.33 993.3 0.00
13 13:00 10.3 6.2 15.3 10.1 83 W 5 G 22 29.31 992.5 0.00
13 12:00 10.7 7.1 85 W 3 G 12 29.30 992.2 0.00
13 11:00 11.2 8.3 88 W 4 G 15 29.30 992.3 0.00
13 10:00 12.0 9.6 90 W 4 G 8 29.30 992.3 0.00
13 09:00 12.3 9.9 90 WNW 0 G 4 29.29 992.0 0.00
13 08:00 12.8 10.2 89 WNW 1 G 11 29.29 991.8 0.00
13 07:00 15.3 13.1 17.7 15.3 91 W 1 G 6 29.29 991.8 0.00
13 06:00 15.9 13.7 91 W 3 G 9 29.30 992.1 0.00
13 05:00 16.9 14.7 91 W 1 G 6 29.30 992.4 0.00
13 04:00 17.3 15.4 92 Calm 29.31 992.7 0.00
13 03:00 17.1 14.9 91 Calm 29.31 992.7 0.00
13 02:00 17.2 15.0 91 Calm 29.31 992.4 0.00
13 01:00 17.7 15.5 30.8 17.7 91 Calm 29.34 993.7 0.00
13 00:00 17.8 15.6 91 Calm 29.35 993.8 0.00
12 23:00 18.2 16.3 92 Calm 29.39 995.2 0.00
12 22:00 19.4 17.5 92 Calm 29.39 995.2 0.00
12 21:00 20.7 19.0 93 NW 0 G 7 29.38 995.1 0.00
12 20:00 22.9 21.2 93 NW 5 G 22 29.37 994.8 0.00
12 19:00 30.5 29.0 31.1 30.2 94 Calm 29.36 994.1 0.00
12 18:00 30.2 28.7 94 Calm 29.37 994.7 0.00
12 17:00 30.6 28.8 93 Calm 29.38 995.0 0.00
12 16:00 30.7 28.7 92 S 0 G 4 29.40 995.5 0.00
12 15:00 31.0 27.6 87 S 1 G 11 29.41 996.1 0.00

Data generated by WxSolution Version 1.9.0.6, Build 2017.01.14.


 
 
Current Radar Loop:

Copyright © WestfordWeather.net 2007-2017. All rights reserved.